Time;durP1;ratioP1;P1;durP2;ratioP2;P2;SDS_P1;SDS_P2;PMS_P1;PMS_P2;Temp;Humidity;BMP_temperature;BMP_pressure;BME280_temperature;BME280_humidity;BME280_pressure;Samples;Min_cycle;Max_cycle;Signal;HPM_P1;HPM_P2
2023/08/04 00:01:44;;;;;;;12.32;4.55;;;19.10;64.70;;;;;;4964239;28;20070;-55
2023/08/04 00:04:13;;;;;;;10.60;4.38;;;19.10;64.70;;;;;;4963757;28;20058;-59
2023/08/04 00:06:40;;;;;;;15.18;4.30;;;19.10;64.70;;;;;;4963392;28;20059;-59
2023/08/04 00:09:09;;;;;;;11.10;4.13;;;19.10;64.70;;;;;;4961248;28;20051;-59
2023/08/04 00:11:36;;;;;;;29.83;6.20;;;19.10;64.80;;;;;;4962780;28;20069;-59
2023/08/04 00:14:03;;;;;;;10.10;4.30;;;19.10;64.90;;;;;;4963407;28;20050;-57
2023/08/04 00:16:30;;;;;;;8.38;4.50;;;19.10;64.70;;;;;;4963321;28;20065;-58
2023/08/04 00:18:58;;;;;;;8.48;4.00;;;19.00;64.60;;;;;;4962616;28;20057;-59
2023/08/04 00:21:25;;;;;;;11.88;4.93;;;19.00;64.70;;;;;;4966911;28;20062;-59
2023/08/04 00:23:57;;;;;;;13.38;4.57;;;19.00;64.80;;;;;;4967979;28;20066;-58
2023/08/04 00:26:26;;;;;;;12.98;4.30;;;19.00;64.90;;;;;;4965518;28;20062;-59
2023/08/04 00:28:53;;;;;;;10.02;4.07;;;18.90;64.80;;;;;;4966517;28;20061;-59
2023/08/04 00:31:21;;;;;;;14.13;4.72;;;18.90;64.90;;;;;;4966475;28;20630;-59
2023/08/04 00:33:48;;;;;;;6.97;3.80;;;19.00;65.00;;;;;;4967167;28;20059;-55
2023/08/04 00:36:15;;;;;;;7.82;4.38;;;19.00;65.00;;;;;;4968179;28;20063;-59
2023/08/04 00:38:42;;;;;;;11.57;3.92;;;19.00;64.90;;;;;;4965410;28;20051;-59
2023/08/04 00:41:09;;;;;;;8.80;4.00;;;19.00;64.90;;;;;;4965763;28;20055;-59
2023/08/04 00:43:38;;;;;;;12.52;4.50;;;19.00;64.90;;;;;;4965735;28;20059;-59
2023/08/04 00:46:05;;;;;;;8.88;4.00;;;19.00;64.80;;;;;;4967207;28;20059;-59
2023/08/04 00:48:33;;;;;;;12.35;3.90;;;19.00;64.80;;;;;;4966234;28;20050;-59
2023/08/04 00:51:00;;;;;;;8.95;4.05;;;19.00;64.80;;;;;;4965714;28;20063;-59
2023/08/04 00:53:27;;;;;;;8.55;3.85;;;19.00;64.80;;;;;;4966256;28;20418;-59
2023/08/04 00:55:55;;;;;;;10.60;4.03;;;19.10;64.80;;;;;;4966069;28;20059;-59
2023/08/04 00:58:23;;;;;;;6.78;3.53;;;19.10;64.70;;;;;;4965906;28;20522;-48
2023/08/04 01:00:51;;;;;;;11.95;3.58;;;19.10;64.70;;;;;;4967073;28;20066;-55
2023/08/04 01:03:23;;;;;;;12.05;4.32;;;19.10;64.60;;;;;;4965801;23;20058;-90
2023/08/04 01:05:57;;;;;;;10.52;4.03;;;19.10;64.50;;;;;;4947030;28;20502;-87
2023/08/04 01:08:30;;;;;;;11.23;3.88;;;19.10;64.30;;;;;;4946188;28;20517;-89
2023/08/04 01:11:02;;;;;;;8.38;2.90;;;19.10;64.10;;;;;;4945414;28;20055;-87
2023/08/04 01:13:30;;;;;;;8.95;2.83;;;19.10;64.10;;;;;;4946346;28;21062;-87
2023/08/04 01:16:00;;;;;;;11.38;3.30;;;19.10;64.10;;;;;;4945744;28;20066;-88
2023/08/04 01:18:27;;;;;;;8.63;2.80;;;19.10;64.10;;;;;;4945984;28;20057;-86
2023/08/04 01:20:54;;;;;;;8.88;3.00;;;19.10;64.20;;;;;;4946094;28;20085;-86
2023/08/04 01:23:23;;;;;;;10.02;3.60;;;19.10;64.10;;;;;;4947066;28;20054;-88
2023/08/04 01:25:50;;;;;;;7.45;2.70;;;19.10;64.00;;;;;;4944846;28;20059;-87
2023/08/04 01:28:18;;;;;;;10.48;3.03;;;19.10;63.90;;;;;;4944096;28;20589;-86
2023/08/04 01:30:48;;;;;;;10.05;2.65;;;19.10;63.70;;;;;;4944535;28;20067;-85
2023/08/04 01:33:16;;;;;;;14.40;3.70;;;19.20;63.50;;;;;;4945018;28;20431;-85
2023/08/04 01:35:43;;;;;;;8.50;3.15;;;19.10;63.40;;;;;;4946383;28;20051;-87
2023/08/04 01:38:11;;;;;;;8.32;3.03;;;19.10;63.30;;;;;;4945964;28;20492;-87
2023/08/04 01:40:40;;;;;;;12.27;3.97;;;19.10;63.30;;;;;;4944471;28;20054;-86
2023/08/04 01:43:07;;;;;;;12.15;3.38;;;19.10;63.30;;;;;;4943906;28;20063;-85
2023/08/04 01:45:35;;;;;;;15.90;3.45;;;19.00;63.20;;;;;;4945529;28;20063;-85
2023/08/04 01:48:02;;;;;;;14.05;4.30;;;19.10;63.30;;;;;;4946120;28;20078;-85
2023/08/04 01:50:30;;;;;;;9.80;3.50;;;19.10;63.40;;;;;;4945869;28;20051;-86
2023/08/04 01:52:58;;;;;;;11.93;3.53;;;19.00;63.40;;;;;;4945075;28;20059;-87
2023/08/04 01:55:25;;;;;;;7.72;2.97;;;19.00;63.30;;;;;;4945752;28;20054;-86
2023/08/04 01:57:54;;;;;;;7.75;3.25;;;19.00;63.30;;;;;;4943875;28;20771;-85
2023/08/04 02:00:21;;;;;;;8.13;3.17;;;19.00;63.30;;;;;;4945008;28;20054;-89
2023/08/04 02:02:49;;;;;;;6.65;3.83;;;19.00;63.40;;;;;;4951174;28;20047;-88
2023/08/04 02:05:16;;;;;;;9.02;3.03;;;19.00;63.30;;;;;;4944804;28;20070;-88
2023/08/04 02:07:43;;;;;;;13.68;3.67;;;19.00;63.30;;;;;;4943862;28;20495;-86
2023/08/04 02:10:11;;;;;;;10.75;3.40;;;19.00;63.30;;;;;;4944618;28;20059;-86
2023/08/04 02:12:38;;;;;;;7.03;3.00;;;19.00;63.30;;;;;;4945220;28;20062;-88
2023/08/04 02:15:07;;;;;;;12.65;3.25;;;19.00;63.30;;;;;;4951477;28;20062;-91
2023/08/04 02:17:36;;;;;;;9.43;3.83;;;19.00;63.20;;;;;;4945784;28;20051;-89
2023/08/04 02:20:04;;;;;;;9.88;3.38;;;19.00;63.10;;;;;;4945127;28;20081;-90
2023/08/04 02:22:31;;;;;;;6.80;3.05;;;19.00;63.00;;;;;;4944634;28;20055;-90
2023/08/04 02:24:58;;;;;;;12.73;3.92;;;19.10;63.00;;;;;;4944592;28;20058;-90
2023/08/04 02:27:25;;;;;;;11.07;3.88;;;19.00;62.80;;;;;;4943666;28;20050;-89
2023/08/04 02:29:53;;;;;;;9.80;3.05;;;19.00;62.70;;;;;;4952467;28;20065;-89
2023/08/04 02:32:22;;;;;;;11.27;3.20;;;19.00;62.70;;;;;;4944729;28;20063;-90
2023/08/04 02:34:50;;;;;;;8.50;3.38;;;19.00;62.70;;;;;;4944500;28;20438;-90
2023/08/04 02:37:18;;;;;;;10.15;3.80;;;19.00;62.80;;;;;;4944010;28;20059;-88
2023/08/04 02:39:45;;;;;;;10.50;3.30;;;19.00;62.90;;;;;;4944734;28;20136;-88
2023/08/04 02:42:12;;;;;;;9.80;3.60;;;19.00;62.80;;;;;;4942980;28;20047;-90
2023/08/04 02:44:39;;;;;;;8.88;3.17;;;18.90;62.80;;;;;;4943790;28;20534;-90
2023/08/04 02:47:07;;;;;;;8.60;3.10;;;18.90;62.90;;;;;;4944697;28;20059;-90
2023/08/04 02:49:36;;;;;;;9.38;2.75;;;18.90;63.00;;;;;;4944293;28;21192;-89
2023/08/04 02:52:05;;;;;;;5.20;2.88;;;18.90;63.00;;;;;;4943846;28;20078;-89
2023/08/04 02:54:32;;;;;;;11.32;3.30;;;18.90;63.10;;;;;;4943922;28;20055;-90
2023/08/04 02:56:59;;;;;;;10.45;3.40;;;18.90;63.10;;;;;;4949400;28;20051;-90
2023/08/04 02:59:27;;;;;;;14.23;3.58;;;18.90;63.80;;;;;;4945976;28;20525;-89
2023/08/04 03:01:54;;;;;;;11.93;3.47;;;18.90;62.90;;;;;;4944945;28;20055;-91
2023/08/04 03:04:22;;;;;;;5.38;2.92;;;18.90;62.90;;;;;;4946186;28;20070;-89
2023/08/04 03:06:50;;;;;;;13.15;3.53;;;18.90;62.90;;;;;;4942851;28;20047;-88
2023/08/04 03:09:18;;;;;;;9.43;3.60;;;18.90;62.90;;;;;;4950421;28;20553;-91
2023/08/04 03:11:46;;;;;;;11.55;3.35;;;18.90;63.60;;;;;;4942654;28;20051;-90
2023/08/04 03:14:13;;;;;;;9.00;3.17;;;18.90;63.00;;;;;;4944460;28;20510;-91
2023/08/04 03:16:41;;;;;;;10.82;3.70;;;18.90;63.00;;;;;;4943664;28;20070;-91
2023/08/04 03:19:08;;;;;;;13.95;4.00;;;18.90;62.90;;;;;;4943981;28;20054;-90
2023/08/04 03:21:35;;;;;;;12.32;4.25;;;18.90;62.90;;;;;;4944701;28;20050;-90
2023/08/04 03:24:04;;;;;;;10.23;3.53;;;18.80;62.80;;;;;;4944209;28;20044;-88
2023/08/04 03:26:31;;;;;;;8.25;3.70;;;18.80;63.00;;;;;;4941640;28;20063;-86
2023/08/04 03:28:59;;;;;;;8.68;3.70;;;18.80;63.10;;;;;;4942882;28;20051;-89
2023/08/04 03:31:26;;;;;;;16.17;3.83;;;18.80;63.30;;;;;;4943143;28;20518;-89
2023/08/04 03:33:54;;;;;;;17.08;4.38;;;18.80;63.40;;;;;;4949827;28;20407;-86
2023/08/04 03:36:21;;;;;;;10.45;3.70;;;18.80;63.40;;;;;;4944246;28;20075;-87
2023/08/04 03:39:28;;;;;;;10.00;3.75;;;18.80;63.40;;;;;;4942643;28;20055;-88
2023/08/04 03:41:55;;;;;;;11.00;4.93;;;18.80;63.70;;;;;;4942093;28;20059;-85
2023/08/04 03:44:22;;;;;;;8.02;3.95;;;18.80;63.50;;;;;;4943926;28;20510;-85
2023/08/04 03:46:49;;;;;;;11.85;4.20;;;18.80;63.50;;;;;;4943972;28;20063;-83
2023/08/04 03:49:17;;;;;;;9.90;4.05;;;18.80;63.60;;;;;;4943592;28;20059;-85
2023/08/04 03:51:44;;;;;;;14.45;5.22;;;18.70;63.60;;;;;;4944195;28;20396;-86
2023/08/04 03:54:11;;;;;;;12.82;4.72;;;18.70;63.60;;;;;;4946337;28;20059;-84
2023/08/04 03:56:40;;;;;;;16.80;5.03;;;18.70;63.60;;;;;;4953730;28;20051;-87
2023/08/04 03:59:08;;;;;;;15.55;5.85;;;18.70;63.50;;;;;;4947902;28;20062;-87
2023/08/04 04:01:35;;;;;;;12.70;4.90;;;18.70;63.50;;;;;;4951857;28;20541;-88
2023/08/04 04:04:02;;;;;;;11.20;4.95;;;18.60;63.60;;;;;;5197418;23;20391;-85
2023/08/04 04:06:30;;;;;;;15.27;5.38;;;18.60;63.60;;;;;;4953497;28;20059;-85
2023/08/04 04:08:57;;;;;;;11.30;5.18;;;18.60;63.70;;;;;;4946994;28;20055;-85
2023/08/04 04:14:00;;;;;;;10.65;5.07;;;18.60;64.10;;;;;;4962667;28;20062;-56
2023/08/04 04:16:29;;;;;;;17.35;5.35;;;18.60;64.10;;;;;;4962430;28;20051;-54
2023/08/04 04:18:57;;;;;;;14.45;6.03;;;18.60;64.20;;;;;;4956326;28;20051;-57
2023/08/04 04:21:24;;;;;;;13.65;5.28;;;18.60;64.20;;;;;;4962368;28;20039;-58
2023/08/04 04:23:51;;;;;;;14.77;5.25;;;18.60;64.30;;;;;;4966384;28;20054;-57
2023/08/04 04:26:18;;;;;;;12.85;5.13;;;18.60;64.40;;;;;;4979459;28;20584;-56
2023/08/04 04:28:46;;;;;;;14.38;6.30;;;18.60;64.40;;;;;;4977737;28;20054;-60
2023/08/04 04:31:14;;;;;;;13.13;5.13;;;18.60;64.50;;;;;;4983670;28;20054;-60
2023/08/04 04:33:42;;;;;;;14.50;6.82;;;18.60;64.50;;;;;;4980792;28;20498;-60
2023/08/04 04:36:09;;;;;;;21.15;8.07;;;18.60;64.50;;;;;;4983378;28;20062;-57
2023/08/04 04:38:36;;;;;;;19.23;7.88;;;18.60;64.30;;;;;;4983760;28;20402;-67
2023/08/04 04:41:04;;;;;;;18.40;9.38;;;18.60;64.20;;;;;;4979913;28;20074;-65
2023/08/04 04:43:31;;;;;;;17.27;11.57;;;18.60;64.00;;;;;;4981092;28;20273;-61
2023/08/04 04:45:58;;;;;;;23.80;10.60;;;18.60;63.80;;;;;;4978832;28;20058;-61
2023/08/04 04:48:27;;;;;;;18.27;9.85;;;18.50;64.10;;;;;;4980479;28;20061;-62
2023/08/04 04:50:54;;;;;;;24.20;12.45;;;18.50;64.30;;;;;;4978471;28;20477;-64
2023/08/04 04:53:21;;;;;;;23.95;12.30;;;18.50;64.30;;;;;;4977970;28;20062;-65
2023/08/04 04:55:49;;;;;;;21.75;11.73;;;18.50;64.40;;;;;;4980172;28;21033;-61
2023/08/04 04:58:16;;;;;;;23.23;11.57;;;18.50;64.60;;;;;;4983300;28;20073;-63
2023/08/04 05:00:43;;;;;;;27.73;13.93;;;18.40;64.60;;;;;;4980218;28;20054;-67
2023/08/04 05:03:10;;;;;;;29.08;15.98;;;18.40;64.70;;;;;;4966920;28;20055;-64
2023/08/04 05:05:39;;;;;;;28.25;15.27;;;18.40;64.80;;;;;;4928522;28;20056;-63
2023/08/04 05:08:06;;;;;;;31.25;11.95;;;18.30;65.00;;;;;;4928226;28;20059;-61
2023/08/04 05:10:34;;;;;;;28.80;11.35;;;18.30;65.20;;;;;;4928683;28;20048;-67
2023/08/04 05:13:01;;;;;;;23.23;9.75;;;18.30;66.10;;;;;;4926663;28;20515;-63
2023/08/04 05:15:29;;;;;;;21.85;9.68;;;18.30;65.40;;;;;;4928679;28;20055;-66
2023/08/04 05:17:56;;;;;;;30.48;12.20;;;18.30;65.70;;;;;;4927965;28;20052;-66
2023/08/04 05:20:23;;;;;;;21.83;11.45;;;18.20;65.60;;;;;;4930468;28;20506;-69
2023/08/04 05:22:52;;;;;;;29.42;11.63;;;18.20;65.80;;;;;;4929159;28;20059;-62
2023/08/04 05:25:19;;;;;;;24.92;11.70;;;18.20;66.20;;;;;;4928431;28;20062;-62
2023/08/04 05:27:50;;;;;;;23.02;10.63;;;18.20;66.40;;;;;;4926643;28;20064;-64
2023/08/04 05:30:17;;;;;;;26.40;11.75;;;18.20;66.70;;;;;;4928663;28;20522;-70
2023/08/04 05:32:45;;;;;;;24.63;12.70;;;18.10;66.70;;;;;;4928615;28;20062;-66
2023/08/04 05:35:12;;;;;;;28.17;12.55;;;18.10;66.60;;;;;;4928582;28;20063;-68
2023/08/04 05:37:39;;;;;;;26.05;12.45;;;18.10;66.60;;;;;;4930415;28;20070;-69
2023/08/04 05:40:09;;;;;;;27.67;11.90;;;18.10;66.80;;;;;;4928340;28;20055;-58
2023/08/04 05:42:37;;;;;;;31.48;13.48;;;18.10;66.80;;;;;;4927074;28;20293;-56
2023/08/04 05:45:04;;;;;;;24.30;13.02;;;18.10;66.80;;;;;;4928040;28;20071;-57
2023/08/04 05:47:32;;;;;;;26.02;13.93;;;18.10;67.00;;;;;;4926733;28;20509;-55
2023/08/04 05:49:59;;;;;;;34.53;13.70;;;18.20;67.20;;;;;;4927530;28;20051;-56
2023/08/04 05:52:26;;;;;;;29.13;13.45;;;18.20;67.00;;;;;;4928151;28;20048;-59
2023/08/04 05:54:54;;;;;;;30.00;13.38;;;18.20;66.90;;;;;;4929039;28;20059;-59
2023/08/04 05:57:23;;;;;;;27.67;13.25;;;18.30;66.80;;;;;;4927373;28;20060;-56
2023/08/04 05:59:50;;;;;;;25.10;11.98;;;18.30;66.70;;;;;;4927785;28;20056;-56
2023/08/04 06:02:18;;;;;;;26.15;12.90;;;18.30;66.70;;;;;;4927448;28;20059;-57
2023/08/04 06:04:46;;;;;;;30.35;15.80;;;18.30;66.70;;;;;;4926449;28;20063;-55
2023/08/04 06:07:13;;;;;;;33.17;17.30;;;18.30;66.70;;;;;;4926657;28;20060;-56
2023/08/04 06:09:41;;;;;;;32.60;17.65;;;18.30;66.70;;;;;;4926612;28;20697;-58
2023/08/04 06:12:10;;;;;;;29.38;16.58;;;18.30;66.40;;;;;;4926426;28;20064;-56
2023/08/04 06:14:39;;;;;;;37.30;17.67;;;18.30;66.30;;;;;;4926441;28;20047;-57
2023/08/04 06:17:06;;;;;;;27.88;16.63;;;18.30;66.40;;;;;;4925714;28;20070;-56
2023/08/04 06:19:34;;;;;;;34.65;16.42;;;18.30;66.40;;;;;;4927092;28;20427;-56
2023/08/04 06:22:01;;;;;;;28.33;16.13;;;18.30;66.40;;;;;;4926399;28;20496;-59
2023/08/04 06:24:28;;;;;;;32.90;16.20;;;18.30;66.60;;;;;;4927039;28;20060;-57
2023/08/04 06:26:56;;;;;;;25.35;14.65;;;18.40;66.80;;;;;;4925054;29;20508;-59
2023/08/04 06:29:23;;;;;;;29.20;14.40;;;18.40;67.00;;;;;;4928470;28;20416;-58
2023/08/04 06:31:52;;;;;;;27.45;15.50;;;18.40;67.10;;;;;;4926889;28;20062;-57
2023/08/04 06:34:19;;;;;;;21.50;13.77;;;18.50;66.50;;;;;;4926141;28;20059;-56
2023/08/04 06:36:46;;;;;;;25.02;12.75;;;18.50;66.70;;;;;;4926026;28;20058;-54
2023/08/04 06:39:14;;;;;;;27.90;12.70;;;18.50;66.80;;;;;;4926512;28;20066;-57
2023/08/04 06:41:42;;;;;;;26.13;12.35;;;18.50;66.80;;;;;;4925003;28;20415;-53
2023/08/04 06:44:10;;;;;;;17.83;10.35;;;18.60;66.80;;;;;;4926351;28;20059;-56
2023/08/04 06:46:37;;;;;;;26.13;11.25;;;18.60;66.20;;;;;;4928614;28;20389;-56
2023/08/04 06:49:05;;;;;;;25.98;10.85;;;18.70;65.80;;;;;;4925854;28;20059;-59
2023/08/04 06:51:33;;;;;;;18.95;10.35;;;18.70;65.60;;;;;;4926377;28;20059;-59
2023/08/04 06:54:00;;;;;;;19.33;9.45;;;18.70;65.60;;;;;;4925541;28;20055;-57
2023/08/04 06:56:27;;;;;;;18.13;9.85;;;18.70;65.70;;;;;;4924321;28;20064;-56
2023/08/04 06:58:54;;;;;;;20.15;10.38;;;18.70;65.70;;;;;;4924535;28;20051;-56
2023/08/04 07:01:22;;;;;;;20.90;10.65;;;18.70;65.60;;;;;;4925202;28;20484;-56
2023/08/04 07:03:49;;;;;;;28.63;12.43;;;18.80;65.80;;;;;;4927065;28;20051;-59
2023/08/04 07:06:18;;;;;;;20.58;11.23;;;18.80;65.40;;;;;;4925014;28;20062;-56
2023/08/04 07:08:45;;;;;;;25.35;10.85;;;18.70;65.30;;;;;;4925666;28;20067;-56
2023/08/04 07:11:15;;;;;;;28.45;11.27;;;18.80;65.60;;;;;;4924471;28;20407;-56
2023/08/04 07:13:43;;;;;;;23.20;11.50;;;18.70;65.80;;;;;;4923988;28;20059;-56
2023/08/04 07:16:11;;;;;;;29.70;11.40;;;18.70;65.80;;;;;;4925935;28;20047;-57
2023/08/04 07:18:38;;;;;;;24.27;12.00;;;18.80;66.20;;;;;;4926565;28;20062;-56
2023/08/04 07:21:06;;;;;;;25.65;11.88;;;18.70;66.30;;;;;;4925501;28;20063;-57
2023/08/04 07:23:35;;;;;;;20.10;12.23;;;18.70;66.10;;;;;;4925247;28;20059;-55
2023/08/04 07:26:03;;;;;;;24.67;13.07;;;18.80;66.30;;;;;;4924882;28;20062;-60
2023/08/04 07:28:31;;;;;;;28.52;13.65;;;18.80;66.00;;;;;;4924187;28;20051;-55
2023/08/04 07:30:59;;;;;;;23.52;13.20;;;18.80;65.50;;;;;;4924850;28;20063;-56
2023/08/04 07:33:27;;;;;;;24.02;13.52;;;18.90;65.20;;;;;;4925486;28;20389;-59
2023/08/04 07:35:55;;;;;;;21.85;14.38;;;18.90;64.70;;;;;;4926942;28;20070;-57
2023/08/04 07:38:22;;;;;;;25.75;15.15;;;18.80;64.10;;;;;;4925226;28;20055;-56
2023/08/04 07:40:51;;;;;;;23.95;14.68;;;18.80;63.90;;;;;;4925880;28;20422;-58
2023/08/04 07:43:18;;;;;;;34.70;14.60;;;18.80;63.80;;;;;;4923758;28;20062;-58
2023/08/04 07:45:46;;;;;;;28.58;14.57;;;18.80;63.90;;;;;;4925314;28;20060;-57
2023/08/04 07:48:13;;;;;;;29.25;14.18;;;18.80;64.10;;;;;;4925491;28;20063;-56
2023/08/04 07:50:42;;;;;;;25.20;13.38;;;18.80;64.30;;;;;;4925042;28;20060;-57
2023/08/04 07:53:10;;;;;;;25.63;14.05;;;18.80;64.90;;;;;;4926013;28;20063;-58
2023/08/04 07:55:39;;;;;;;23.83;13.68;;;18.80;65.10;;;;;;4924288;28;20054;-56
2023/08/04 07:58:08;;;;;;;24.45;12.52;;;18.90;65.30;;;;;;4924595;28;20063;-56
2023/08/04 08:00:36;;;;;;;21.23;11.32;;;18.90;64.90;;;;;;4925463;28;20052;-66
2023/08/04 08:03:03;;;;;;;23.08;11.85;;;18.90;64.20;;;;;;4924994;28;20063;-59
2023/08/04 08:05:30;;;;;;;22.20;11.57;;;18.90;64.40;;;;;;4923843;28;20500;-62
2023/08/04 08:07:57;;;;;;;24.77;11.68;;;19.00;64.50;;;;;;4924237;28;20058;-61
2023/08/04 08:10:25;;;;;;;24.02;10.45;;;19.00;64.20;;;;;;4926209;28;20063;-62
2023/08/04 08:12:52;;;;;;;16.98;8.90;;;19.10;64.20;;;;;;4922741;28;20056;-68
2023/08/04 08:15:21;;;;;;;12.95;7.75;;;19.10;64.50;;;;;;4925297;28;20064;-62
2023/08/04 08:17:48;;;;;;;18.23;6.50;;;19.20;64.10;;;;;;4924746;28;20063;-61
2023/08/04 08:20:15;;;;;;;20.30;6.95;;;19.20;63.30;;;;;;4924837;28;20070;-64
2023/08/04 08:22:42;;;;;;;17.63;7.38;;;19.20;62.20;;;;;;4924042;28;20515;-64
2023/08/04 08:25:12;;;;;;;12.52;5.93;;;19.30;61.90;;;;;;4926294;28;20060;-64
2023/08/04 08:27:39;;;;;;;9.27;5.30;;;19.30;61.70;;;;;;4925488;28;20385;-62
2023/08/04 08:30:07;;;;;;;14.70;6.63;;;19.30;62.00;;;;;;4925209;28;20078;-61
2023/08/04 08:32:36;;;;;;;20.15;6.88;;;19.30;62.00;;;;;;4925092;28;21455;-63
2023/08/04 08:35:04;;;;;;;11.75;5.80;;;19.30;61.70;;;;;;4925052;28;20429;-64
2023/08/04 08:37:31;;;;;;;15.25;6.15;;;19.30;61.80;;;;;;4924807;28;20055;-60
2023/08/04 08:39:58;;;;;;;12.02;5.60;;;19.40;61.70;;;;;;4926519;28;20071;-63
2023/08/04 08:42:26;;;;;;;10.93;4.65;;;19.40;61.10;;;;;;4927730;28;20407;-63
2023/08/04 08:44:54;;;;;;;16.35;6.72;;;19.40;61.20;;;;;;4929002;28;20051;-67
2023/08/04 08:47:24;;;;;;;13.00;6.28;;;19.50;60.40;;;;;;4928569;28;20059;-63
2023/08/04 08:49:59;;;;;;;12.55;5.35;;;19.50;60.50;;;;;;4928700;28;20066;-66
2023/08/04 08:52:30;;;;;;;18.73;5.75;;;19.50;59.80;;;;;;4927104;28;20059;-66
2023/08/04 08:54:58;;;;;;;12.00;5.70;;;19.50;60.30;;;;;;4928770;28;20066;-64
2023/08/04 08:57:26;;;;;;;14.75;5.28;;;19.50;60.20;;;;;;4927741;28;20066;-62
2023/08/04 08:59:54;;;;;;;12.57;4.85;;;19.60;59.90;;;;;;4928005;28;20074;-64
2023/08/04 09:02:22;;;;;;;14.15;5.68;;;19.60;60.00;;;;;;4929314;28;20058;-62
2023/08/04 09:04:50;;;;;;;18.40;5.03;;;19.70;60.10;;;;;;4928365;28;20070;-66
2023/08/04 09:07:18;;;;;;;16.65;4.95;;;19.70;59.40;;;;;;4928872;28;20062;-63
2023/08/04 09:09:46;;;;;;;9.95;4.32;;;19.70;58.90;;;;;;4927784;28;20439;-65
2023/08/04 09:12:13;;;;;;;14.52;4.20;;;19.70;58.50;;;;;;4926512;28;20047;-65
2023/08/04 09:14:51;;;;;;;16.10;5.20;;;19.70;58.50;;;;;;4927930;28;20059;-68
2023/08/04 09:17:32;;;;;;;18.90;5.40;;;19.70;58.30;;;;;;4928797;28;20120;-69
2023/08/04 09:20:01;;;;;;;15.27;5.07;;;19.70;58.20;;;;;;4927468;28;20062;-62
2023/08/04 09:22:31;;;;;;;11.98;4.85;;;19.80;58.60;;;;;;4927352;28;20055;-62
2023/08/04 09:25:00;;;;;;;13.02;5.22;;;19.80;59.00;;;;;;4928472;28;20428;-67
2023/08/04 09:27:33;;;;;;;17.35;5.38;;;19.80;58.90;;;;;;4926216;28;20052;-63
2023/08/04 09:30:03;;;;;;;12.68;5.28;;;19.80;58.70;;;;;;4927365;28;20062;-59
2023/08/04 09:32:30;;;;;;;14.88;5.18;;;19.90;58.90;;;;;;4927877;28;20519;-64
2023/08/04 09:35:03;;;;;;;16.00;5.82;;;19.90;59.10;;;;;;4928029;28;20133;-63
2023/08/04 09:37:33;;;;;;;11.57;4.68;;;19.90;58.50;;;;;;4926899;28;20094;-63
2023/08/04 09:40:02;;;;;;;12.95;4.40;;;20.00;58.80;;;;;;4928520;28;20123;-66
2023/08/04 09:42:30;;;;;;;10.10;4.72;;;20.00;59.20;;;;;;4926098;28;20059;-60
2023/08/04 09:44:57;;;;;;;13.57;4.78;;;20.10;58.90;;;;;;4926860;28;20074;-63
2023/08/04 09:47:26;;;;;;;9.07;3.63;;;20.10;59.10;;;;;;4927751;28;20059;-60
2023/08/04 09:49:54;;;;;;;11.98;3.47;;;20.20;58.20;;;;;;4928301;28;20056;-62
2023/08/04 09:52:23;;;;;;;12.90;3.80;;;20.30;57.50;;;;;;4929150;28;20078;-65
2023/08/04 09:54:53;;;;;;;16.60;4.72;;;20.30;57.20;;;;;;4928224;28;20051;-65
2023/08/04 09:57:22;;;;;;;9.23;4.00;;;20.30;56.80;;;;;;4926217;28;20059;-66
2023/08/04 09:59:49;;;;;;;13.88;3.38;;;20.30;56.80;;;;;;4926769;28;20066;-67
2023/08/04 10:02:18;;;;;;;10.93;3.70;;;20.30;57.10;;;;;;4925951;28;20056;-64
2023/08/04 10:04:49;;;;;;;13.68;4.22;;;20.30;56.90;;;;;;4926695;28;20060;-68
2023/08/04 10:07:17;;;;;;;11.18;3.80;;;20.20;57.20;;;;;;4926694;28;20512;-63
2023/08/04 10:09:45;;;;;;;9.25;4.15;;;20.20;57.30;;;;;;4929862;28;20063;-70
2023/08/04 10:12:15;;;;;;;11.32;4.70;;;20.20;57.60;;;;;;4925741;28;20416;-63
2023/08/04 10:14:43;;;;;;;12.38;4.45;;;20.20;57.50;;;;;;4926629;28;20047;-60
2023/08/04 10:17:11;;;;;;;12.05;4.70;;;20.20;57.60;;;;;;4927091;28;20055;-69
2023/08/04 10:19:38;;;;;;;10.50;4.60;;;20.20;57.80;;;;;;4926921;28;20055;-63
2023/08/04 10:22:08;;;;;;;16.80;4.65;;;20.30;57.50;;;;;;4926326;28;20082;-71
2023/08/04 10:24:36;;;;;;;10.18;4.68;;;20.30;57.00;;;;;;4927954;28;20059;-63
2023/08/04 10:27:18;;;;;;;13.73;4.47;;;20.20;56.60;;;;;;4926796;28;20055;-62
2023/08/04 10:29:46;;;;;;;11.40;5.00;;;20.30;57.20;;;;;;4926357;28;20070;-66
2023/08/04 10:32:17;;;;;;;13.48;3.72;;;20.20;57.20;;;;;;4926624;28;20510;-59
2023/08/04 10:34:45;;;;;;;8.45;3.47;;;20.20;57.00;;;;;;4926979;28;20051;-67
2023/08/04 10:37:17;;;;;;;12.98;3.78;;;20.20;56.30;;;;;;4926082;28;20594;-65
2023/08/04 10:39:46;;;;;;;12.07;4.50;;;20.10;56.00;;;;;;4927203;28;20052;-58
2023/08/04 10:42:23;;;;;;;8.25;3.60;;;20.20;56.60;;;;;;4926463;28;20063;-67
2023/08/04 10:44:53;;;;;;;12.70;4.90;;;20.20;56.10;;;;;;4927245;28;20052;-67
2023/08/04 10:47:40;;;;;;;11.20;3.38;;;20.20;56.00;;;;;;4925855;28;20063;-68
2023/08/04 10:50:08;;;;;;;8.02;3.20;;;20.20;55.80;;;;;;4926517;28;20415;-65
2023/08/04 10:52:37;;;;;;;6.53;2.90;;;20.20;56.30;;;;;;4924269;28;20055;-67
2023/08/04 10:55:06;;;;;;;12.82;4.22;;;20.20;55.70;;;;;;4927536;28;20071;-69
2023/08/04 10:57:36;;;;;;;11.70;4.13;;;20.20;56.10;;;;;;4924627;28;20400;-61
2023/08/04 11:00:05;;;;;;;9.40;4.10;;;20.30;56.80;;;;;;4928334;28;20047;-62
2023/08/04 11:02:34;;;;;;;10.32;3.95;;;20.30;57.10;;;;;;4927224;28;20056;-62
2023/08/04 11:05:02;;;;;;;11.40;3.38;;;20.30;56.90;;;;;;4925033;28;20055;-62
2023/08/04 11:07:30;;;;;;;7.07;3.60;;;20.40;56.80;;;;;;4925267;28;20063;-69
2023/08/04 11:10:03;;;;;;;11.27;4.45;;;20.40;57.00;;;;;;4926604;28;20052;-61
2023/08/04 11:12:30;;;;;;;13.40;3.95;;;20.40;57.00;;;;;;4923965;28;20056;-61
2023/08/04 11:15:00;;;;;;;11.23;3.42;;;20.50;56.90;;;;;;4926339;28;20062;-60
2023/08/04 11:17:27;;;;;;;10.73;3.47;;;20.50;57.60;;;;;;4928509;28;20056;-71
2023/08/04 11:19:54;;;;;;;7.60;3.60;;;20.50;57.30;;;;;;4926066;28;20067;-61
2023/08/04 11:22:23;;;;;;;8.75;3.80;;;20.60;57.70;;;;;;4925512;28;20055;-60
2023/08/04 11:24:51;;;;;;;12.82;4.22;;;20.70;57.50;;;;;;4925645;28;20504;-61
2023/08/04 11:27:20;;;;;;;6.43;3.42;;;20.70;57.50;;;;;;4924285;28;20066;-59
2023/08/04 11:29:52;;;;;;;10.55;3.50;;;20.80;57.80;;;;;;4925803;28;20055;-55
2023/08/04 11:32:23;;;;;;;6.97;3.80;;;20.80;58.00;;;;;;4925500;28;20067;-57
2023/08/04 11:34:50;;;;;;;8.50;3.67;;;20.90;57.60;;;;;;4926215;28;20492;-58
2023/08/04 11:37:19;;;;;;;7.00;2.97;;;21.00;57.50;;;;;;4925636;28;20515;-55
2023/08/04 11:39:48;;;;;;;4.85;2.97;;;21.00;57.40;;;;;;4926030;28;20063;-55
2023/08/04 11:42:15;;;;;;;5.80;2.95;;;21.10;56.90;;;;;;4923847;28;20067;-55
2023/08/04 11:44:42;;;;;;;6.88;3.17;;;21.20;56.80;;;;;;4925945;28;20059;-56
2023/08/04 11:47:11;;;;;;;7.82;4.57;;;21.30;56.70;;;;;;4925880;28;20059;-54
2023/08/04 11:49:41;;;;;;;13.43;4.03;;;21.40;55.80;;;;;;4925486;28;20055;-55
2023/08/04 11:52:09;;;;;;;12.23;3.97;;;21.40;55.50;;;;;;4926171;28;20059;-55
2023/08/04 11:54:50;;;;;;;5.78;3.28;;;21.40;55.00;;;;;;4924344;28;20408;-58
2023/08/04 11:57:18;;;;;;;7.93;3.35;;;21.50;55.10;;;;;;4924466;28;20090;-53
2023/08/04 11:59:47;;;;;;;10.90;3.97;;;21.50;55.40;;;;;;4924463;28;20496;-52
2023/08/04 12:02:15;;;;;;;8.85;3.55;;;21.50;55.60;;;;;;4925657;28;20063;-54
2023/08/04 12:04:44;;;;;;;5.10;3.35;;;21.60;55.50;;;;;;4925374;28;20059;-54
2023/08/04 12:07:12;;;;;;;7.72;3.10;;;21.60;55.60;;;;;;4925776;28;20051;-53
2023/08/04 12:09:40;;;;;;;7.78;3.50;;;21.70;55.40;;;;;;4925936;28;20048;-56
2023/08/04 12:12:08;;;;;;;7.20;3.80;;;21.80;54.70;;;;;;4923121;28;20408;-57
2023/08/04 12:14:36;;;;;;;9.13;3.85;;;21.80;54.80;;;;;;4925472;28;20227;-57
2023/08/04 12:17:04;;;;;;;9.10;3.30;;;21.80;53.20;;;;;;4929053;28;20055;-57
2023/08/04 12:19:33;;;;;;;5.35;2.55;;;21.80;52.60;;;;;;4927964;28;20067;-63
2023/08/04 12:22:03;;;;;;;7.45;2.97;;;21.80;52.50;;;;;;4928618;28;20062;-54
2023/08/04 12:24:31;;;;;;;6.18;2.85;;;21.80;52.90;;;;;;4928295;28;20137;-52
2023/08/04 12:26:59;;;;;;;5.13;2.65;;;21.80;53.00;;;;;;4928574;28;20055;-51
2023/08/04 12:29:26;;;;;;;7.88;2.95;;;21.80;53.60;;;;;;4928828;28;20064;-57
2023/08/04 12:31:54;;;;;;;4.65;2.67;;;21.80;53.90;;;;;;4927835;28;20059;-55
2023/08/04 12:34:21;;;;;;;6.88;2.85;;;21.80;54.10;;;;;;4929140;28;20044;-57
2023/08/04 12:36:48;;;;;;;9.40;3.28;;;21.90;53.00;;;;;;4928461;28;20052;-58
2023/08/04 12:39:17;;;;;;;9.05;2.63;;;22.00;52.40;;;;;;4927669;28;20508;-56
2023/08/04 12:41:44;;;;;;;7.90;2.88;;;21.90;52.50;;;;;;4927621;28;20067;-59
2023/08/04 12:44:11;;;;;;;10.07;2.70;;;22.00;52.40;;;;;;4928338;28;20651;-61